Terminal Aerodrome Forecast
Issued by NWS

Current Version | Previous Version | Text Only | Print | Product List | Glossary On
Versions: 1 2 3 4 5 6 7 8 9 10 11 12
042
FTUS45 KABQ 252329
TAFSAF
TAF
KSAF 252329Z 2600/2624 23015G25KT P6SM BKN090
     FM260200 16008KT P6SM SCT120
     FM260900 02007KT P6SM FEW120
     FM261700 23013KT P6SM SCT090 SCT120
     FM262000 26015G25KT P6SM SCT080 BKN120=

USA.gov is the U.S. government's official web portal to all federal, state and local government web resources and services.